Time;durP1;ratioP1;P1;durP2;ratioP2;P2;SDS_P1;SDS_P2;PMS_P1;PMS_P2;Temp;Humidity;BMP_temperature;BMP_pressure;BME280_temperature;BME280_humidity;BME280_pressure;Samples;Min_cycle;Max_cycle;Signal;HPM_P1;HPM_P2
2024/01/29 00:02:21;;;;;;;3.20;1.98;;;;;;;;;;5007954;28;20040;-76
2024/01/29 00:04:46;;;;;;;4.97;2.95;;;;;;;;;;5027471;28;20283;-75
2024/01/29 00:07:13;;;;;;;6.65;2.58;;;;;;;;;;5020106;28;20025;-76
2024/01/29 00:09:38;;;;;;;4.22;2.85;;;;;;;;;;5018193;28;20510;-76
2024/01/29 00:12:05;;;;;;;8.73;3.55;;;;;;;;;;5015686;28;20029;-76
2024/01/29 00:14:31;;;;;;;3.33;1.90;;;;;;;;;;5024701;28;20125;-76
2024/01/29 00:16:57;;;;;;;4.95;3.25;;;;;;;;;;5022957;28;20100;-75
2024/01/29 00:19:23;;;;;;;5.82;3.05;;;;;;;;;;5026052;28;20029;-76
2024/01/29 00:21:50;;;;;;;3.50;2.35;;;;;;;;;;5021509;28;20071;-76
2024/01/29 00:24:16;;;;;;;5.65;2.28;;;;;;;;;;5017398;28;20104;-74
2024/01/29 00:26:42;;;;;;;4.40;2.65;;;;;;;;;;5017817;28;20276;-76
2024/01/29 00:29:08;;;;;;;3.03;2.25;;;;;;;;;;5014562;28;20037;-74
2024/01/29 00:31:34;;;;;;;3.55;2.45;;;;;;;;;;5018614;28;20038;-74
2024/01/29 00:34:00;;;;;;;4.78;3.20;;;;;;;;;;5027661;28;20040;-76
2024/01/29 00:36:26;;;;;;;6.63;2.75;;;;;;;;;;5020912;28;20018;-74
2024/01/29 00:38:51;;;;;;;5.03;2.88;;;-2.10;99.90;;;;;;5018017;28;20087;-75
2024/01/29 00:41:17;;;;;;;4.63;2.97;;;;;;;;;;5021758;28;20124;-76
2024/01/29 00:43:43;;;;;;;3.95;2.70;;;;;;;;;;5023789;28;20033;-74
2024/01/29 00:46:09;;;;;;;3.58;2.80;;;;;;;;;;5027409;28;20022;-75
2024/01/29 00:48:35;;;;;;;5.53;2.90;;;;;;;;;;5023489;28;20030;-74
2024/01/29 00:51:02;;;;;;;7.72;2.85;;;;;;;;;;5027784;28;20033;-75
2024/01/29 00:53:28;;;;;;;4.05;2.78;;;;;;;;;;5017558;28;20060;-77
2024/01/29 00:55:54;;;;;;;6.07;2.90;;;;;;;;;;5014804;28;20076;-75
2024/01/29 00:58:20;;;;;;;6.65;2.70;;;;;;;;;;5019648;28;20056;-77
2024/01/29 01:00:47;;;;;;;4.30;2.47;;;;;;;;;;5020532;28;20091;-74
2024/01/29 01:03:13;;;;;;;4.38;2.63;;;;;;;;;;5028379;28;20321;-76
2024/01/29 01:05:40;;;;;;;6.35;3.72;;;;;;;;;;5028002;28;20037;-76
2024/01/29 01:08:06;;;;;;;4.18;2.13;;;;;;;;;;5020178;28;20033;-76
2024/01/29 01:10:32;;;;;;;3.55;2.33;;;;;;;;;;5022557;28;20035;-76
2024/01/29 01:12:58;;;;;;;10.35;2.97;;;;;;;;;;5018902;28;20022;-76
2024/01/29 01:15:24;;;;;;;7.97;3.03;;;;;;;;;;5016982;28;20557;-75
2024/01/29 01:17:50;;;;;;;7.10;2.85;;;;;;;;;;5020405;28;21568;-75
2024/01/29 01:20:16;;;;;;;4.03;2.72;;;;;;;;;;5027246;28;20030;-76
2024/01/29 01:22:42;;;;;;;5.45;3.00;;;;;;;;;;5022245;28;20634;-75
2024/01/29 01:25:08;;;;;;;3.42;2.25;;;;;;;;;;5040024;28;20045;-75
2024/01/29 01:27:34;;;;;;;5.80;3.17;;;;;;;;;;5025444;28;20041;-76
2024/01/29 01:30:00;;;;;;;2.25;1.65;;;;;;;;;;5024920;28;20022;-76
2024/01/29 01:32:26;;;;;;;3.05;2.25;;;;;;;;;;5018121;28;20053;-76
2024/01/29 01:34:52;;;;;;;4.05;1.83;;;;;;;;;;5021339;28;20061;-76
2024/01/29 01:37:18;;;;;;;4.13;2.50;;;;;;;;;;5017713;28;20045;-76
2024/01/29 01:39:44;;;;;;;3.05;2.65;;;;;;;;;;5022148;28;20480;-76
2024/01/29 01:42:10;;;;;;;7.05;3.22;;;;;;;;;;5022416;28;20037;-76
2024/01/29 01:44:36;;;;;;;5.10;3.72;;;;;;;;;;5013665;28;20033;-76
2024/01/29 01:47:02;;;;;;;13.23;3.15;;;;;;;;;;5021890;28;20032;-75
2024/01/29 01:49:29;;;;;;;6.63;3.28;;;;;;;;;;5020404;28;20026;-76
2024/01/29 01:51:55;;;;;;;5.22;2.80;;;;;;;;;;5014905;28;20080;-75
2024/01/29 01:54:21;;;;;;;6.97;3.08;;;;;;;;;;5018622;28;20061;-75
2024/01/29 01:56:48;;;;;;;3.88;2.88;;;;;;;;;;5023762;28;20140;-76
2024/01/29 01:59:14;;;;;;;5.07;2.70;;;;;;;;;;5015728;28;20040;-75
2024/01/29 02:01:40;;;;;;;7.25;3.08;;;;;;;;;;5010714;28;20017;-75
2024/01/29 02:04:06;;;;;;;3.20;2.65;;;;;;;;;;5024942;28;20164;-75
2024/01/29 02:06:32;;;;;;;5.35;2.80;;;;;;;;;;5015974;28;20242;-76
2024/01/29 02:08:59;;;;;;;4.10;2.15;;;;;;;;;;5020467;28;20030;-75
2024/01/29 02:11:25;;;;;;;4.90;2.67;;;;;;;;;;5019402;28;20468;-75
2024/01/29 02:13:51;;;;;;;5.60;3.60;;;;;;;;;;5022688;28;20053;-76
2024/01/29 02:16:17;;;;;;;6.72;3.42;;;;;;;;;;5021893;28;20028;-75
2024/01/29 02:18:43;;;;;;;2.67;2.35;;;-1.90;99.90;;;;;;5017735;28;20048;-76
2024/01/29 02:21:09;;;;;;;5.05;2.72;;;;;;;;;;5023660;28;20433;-76
2024/01/29 02:23:35;;;;;;;10.32;3.10;;;;;;;;;;5016960;28;20068;-75
2024/01/29 02:26:01;;;;;;;3.80;2.00;;;;;;;;;;5024293;28;20026;-76
2024/01/29 02:28:27;;;;;;;4.78;2.22;;;;;;;;;;5017279;28;20030;-76
2024/01/29 02:30:53;;;;;;;7.13;3.05;;;;;;;;;;5024095;28;20025;-76
2024/01/29 02:33:19;;;;;;;7.00;3.45;;;;;;;;;;5020175;28;20030;-76
2024/01/29 02:35:48;;;;;;;6.57;3.03;;;;;;;;;;5024454;28;20049;-75
2024/01/29 02:38:14;;;;;;;3.92;2.10;;;;;;;;;;5019879;28;20029;-75
2024/01/29 02:40:40;;;;;;;5.70;3.40;;;;;;;;;;5019489;28;20036;-75
2024/01/29 02:43:06;;;;;;;4.88;2.63;;;;;;;;;;5014441;28;20033;-74
2024/01/29 02:45:32;;;;;;;4.60;3.05;;;;;;;;;;5026132;28;20033;-75
2024/01/29 02:47:58;;;;;;;6.60;3.58;;;;;;;;;;5018486;28;20600;-75
2024/01/29 02:50:25;;;;;;;5.50;2.90;;;;;;;;;;5026118;28;20179;-75
2024/01/29 02:52:51;;;;;;;4.63;2.40;;;;;;;;;;5023454;28;20056;-74
2024/01/29 02:55:17;;;;;;;4.45;3.42;;;;;;;;;;5015211;28;20067;-74
2024/01/29 02:57:43;;;;;;;5.72;3.00;;;;;;;;;;5017097;28;20028;-75
2024/01/29 03:00:10;;;;;;;3.72;2.05;;;;;;;;;;5019842;28;20116;-74
2024/01/29 03:02:36;;;;;;;7.38;3.90;;;;;;;;;;5005498;28;20040;-74
2024/01/29 03:05:02;;;;;;;6.65;3.17;;;;;;;;;;5020730;28;20048;-74
2024/01/29 03:07:28;;;;;;;6.45;1.80;;;;;;;;;;5016368;28;20030;-74
2024/01/29 03:09:54;;;;;;;4.90;2.78;;;;;;;;;;5015533;28;20498;-76
2024/01/29 03:12:20;;;;;;;6.40;2.17;;;;;;;;;;5013223;28;20484;-76
2024/01/29 03:14:46;;;;;;;4.22;2.80;;;;;;;;;;5015735;28;20723;-76
2024/01/29 03:17:12;;;;;;;2.67;2.13;;;;;;;;;;5015359;28;20451;-75
2024/01/29 03:19:38;;;;;;;3.97;2.45;;;;;;;;;;5018067;28;20061;-76
2024/01/29 03:22:04;;;;;;;6.90;3.60;;;;;;;;;;5018864;28;20557;-76
2024/01/29 03:24:30;;;;;;;5.68;2.80;;;;;;;;;;5018284;28;20052;-75
2024/01/29 03:26:56;;;;;;;6.47;3.90;;;;;;;;;;5016249;28;20104;-75
2024/01/29 03:29:22;;;;;;;6.68;3.63;;;;;;;;;;5012753;28;20117;-75
2024/01/29 03:31:48;;;;;;;6.32;3.55;;;;;;;;;;5012726;28;20558;-77
2024/01/29 03:34:14;;;;;;;6.15;3.67;;;;;;;;;;5022115;28;20053;-76
2024/01/29 03:36:40;;;;;;;5.40;3.55;;;;;;;;;;5017232;28;20029;-76
2024/01/29 03:39:05;;;;;;;5.55;3.47;;;;;;;;;;5015559;28;20026;-76
2024/01/29 03:41:34;;;;;;;8.15;3.97;;;;;;;;;;5014876;28;20052;-76
2024/01/29 03:44:00;;;;;;;3.60;2.90;;;;;;;;;;5011036;28;20040;-75
2024/01/29 03:46:26;;;;;;;10.02;4.80;;;;;;;;;;5010859;28;20026;-77
2024/01/29 03:48:52;;;;;;;8.45;2.78;;;;;;;;;;5022516;28;20021;-76
2024/01/29 03:51:18;;;;;;;7.88;4.05;;;;;;;;;;5020978;28;20045;-76
2024/01/29 03:53:44;;;;;;;15.05;4.55;;;;;;;;;;5024299;28;20029;-75
2024/01/29 03:56:10;;;;;;;12.95;5.93;;;;;;;;;;5026553;28;20594;-75
2024/01/29 03:58:36;;;;;;;14.82;5.28;;;;;;;;;;5022988;28;20441;-76
2024/01/29 04:01:02;;;;;;;8.35;4.65;;;;;;;;;;5025566;28;20435;-74
2024/01/29 04:03:27;;;;;;;9.15;6.03;;;-2.30;99.90;;;;;;5015689;28;20068;-74
2024/01/29 04:05:53;;;;;;;11.98;5.75;;;;;;;;;;5023932;28;20030;-75
2024/01/29 04:08:21;;;;;;;10.55;5.30;;;;;;;;;;5017425;28;20033;-75
2024/01/29 04:10:47;;;;;;;5.95;3.97;;;;;;;;;;5015871;28;20556;-74
2024/01/29 04:13:13;;;;;;;6.43;3.72;;;;;;;;;;5024103;28;20048;-75
2024/01/29 04:15:39;;;;;;;5.95;3.33;;;;;;;;;;5021997;28;20033;-76
2024/01/29 04:18:05;;;;;;;4.65;3.03;;;;;;;;;;5017647;28;20083;-74
2024/01/29 04:20:31;;;;;;;6.90;3.67;;;;;;;;;;5023320;28;20392;-75
2024/01/29 04:22:57;;;;;;;5.50;3.22;;;;;;;;;;5018012;28;20017;-74
2024/01/29 04:25:23;;;;;;;11.73;4.47;;;;;;;;;;5020055;28;20049;-74
2024/01/29 04:27:51;;;;;;;5.07;3.05;;;;;;;;;;5017668;28;20117;-75
2024/01/29 04:30:17;;;;;;;8.52;3.60;;;;;;;;;;5024151;28;20043;-76
2024/01/29 04:32:43;;;;;;;9.50;5.03;;;;;;;;;;5014815;28;20021;-74
2024/01/29 04:35:09;;;;;;;6.28;3.78;;;;;;;;;;5016435;28;20053;-74
2024/01/29 04:37:35;;;;;;;8.27;3.72;;;;;;;;;;5035684;28;20093;-74
2024/01/29 04:40:01;;;;;;;17.35;3.15;;;;;;;;;;5039353;28;20538;-77
2024/01/29 04:42:27;;;;;;;7.43;3.13;;;;;;;;;;5027674;28;20075;-75
2024/01/29 04:44:53;;;;;;;6.10;3.17;;;;;;;;;;5023699;28;20441;-76
2024/01/29 04:47:19;;;;;;;4.60;3.90;;;;;;;;;;5022685;28;20029;-76
2024/01/29 04:49:45;;;;;;;6.47;3.95;;;;;;;;;;5025502;28;20029;-76
2024/01/29 04:52:11;;;;;;;5.68;3.78;;;;;;;;;;5020622;28;20110;-76
2024/01/29 04:54:37;;;;;;;4.93;3.92;;;;;;;;;;5020490;28;20120;-76
2024/01/29 04:57:03;;;;;;;5.78;3.95;;;;;;;;;;5021781;28;20459;-76
2024/01/29 04:59:29;;;;;;;7.88;3.92;;;;;;;;;;5023755;28;20041;-77
2024/01/29 05:01:55;;;;;;;3.78;3.15;;;;;;;;;;5014443;28;20044;-76
2024/01/29 05:04:21;;;;;;;5.60;4.82;;;;;;;;;;5020512;28;20035;-75
2024/01/29 05:06:47;;;;;;;8.57;4.25;;;;;;;;;;5018511;28;20034;-76
2024/01/29 05:09:14;;;;;;;7.18;3.97;;;;;;;;;;5019051;28;20037;-76
2024/01/29 05:11:40;;;;;;;5.10;3.22;;;;;;;;;;5013949;28;20033;-75
2024/01/29 05:14:06;;;;;;;5.95;3.90;;;;;;;;;;5021028;28;20986;-76
2024/01/29 05:16:34;;;;;;;11.00;5.60;;;;;;;;;;5021416;28;20057;-75
2024/01/29 05:19:00;;;;;;;6.18;4.45;;;;;;;;;;5012527;28;20116;-76
2024/01/29 05:21:27;;;;;;;8.70;5.65;;;;;;;;;;5017108;28;20033;-76
2024/01/29 05:23:53;;;;;;;7.50;5.68;;;;;;;;;;5017867;28;20575;-75
2024/01/29 05:26:19;;;;;;;5.45;4.78;;;;;;;;;;5020582;28;20030;-74
2024/01/29 05:28:45;;;;;;;10.18;5.80;;;;;;;;;;5022550;28;20033;-75
2024/01/29 05:31:11;;;;;;;10.60;6.35;;;;;;;;;;5017279;28;20096;-75
2024/01/29 05:33:37;;;;;;;13.95;5.95;;;;;;;;;;5025753;28;20030;-76
2024/01/29 05:36:03;;;;;;;12.07;5.55;;;;;;;;;;5024432;28;20044;-75
2024/01/29 05:38:31;;;;;;;7.93;4.28;;;;;;;;;;5011042;28;20037;-74
2024/01/29 05:40:57;;;;;;;9.82;3.90;;;;;;;;;;5007311;28;20029;-75
2024/01/29 05:43:23;;;;;;;8.02;3.85;;;;;;;;;;5025240;28;20033;-75
2024/01/29 05:45:49;;;;;;;7.05;3.97;;;;;;;;;;5025627;28;20037;-75
2024/01/29 05:48:15;;;;;;;6.40;4.22;;;;;;;;;;5011010;28;20037;-74
2024/01/29 05:50:41;;;;;;;7.22;4.38;;;;;;;;;;5023957;28;20026;-76
2024/01/29 05:53:07;;;;;;;7.05;3.90;;;;;;;;;;5018175;28;20040;-75
2024/01/29 05:55:33;;;;;;;6.97;4.00;;;;;;;;;;5022194;28;20686;-75
2024/01/29 05:57:58;;;;;;;4.95;4.03;;;;;;;;;;5019033;28;20117;-75
2024/01/29 06:00:24;;;;;;;9.65;5.07;;;;;;;;;;5019874;28;20018;-76
2024/01/29 06:02:50;;;;;;;12.75;5.57;;;;;;;;;;5015693;28;20472;-75
2024/01/29 06:05:17;;;;;;;17.83;7.00;;;;;;;;;;5019782;28;20247;-75
2024/01/29 06:07:43;;;;;;;5.28;4.35;;;;;;;;;;5014727;28;20105;-75
2024/01/29 06:10:09;;;;;;;8.25;5.00;;;;;;;;;;5022353;28;20113;-74
2024/01/29 06:12:35;;;;;;;10.43;5.75;;;;;;;;;;5011598;28;20018;-74
2024/01/29 06:15:01;;;;;;;7.90;4.82;;;;;;;;;;5020477;28;20353;-75
2024/01/29 06:17:27;;;;;;;7.45;4.80;;;;;;;;;;5018663;28;20433;-74
2024/01/29 06:19:53;;;;;;;5.75;3.70;;;;;;;;;;5018737;28;20026;-75
2024/01/29 06:22:19;;;;;;;8.52;4.18;;;;;;;;;;5008285;28;20041;-75
2024/01/29 06:24:45;;;;;;;6.22;4.38;;;;;;;;;;5013028;28;20042;-75
2024/01/29 06:27:11;;;;;;;7.18;3.83;;;;;;;;;;5019536;28;20030;-75
2024/01/29 06:29:37;;;;;;;7.47;3.35;;;;;;;;;;5024521;28;20083;-75
2024/01/29 06:32:03;;;;;;;6.43;3.50;;;;;;;;;;5017711;28;20109;-75
2024/01/29 06:34:31;;;;;;;4.07;3.00;;;;;;;;;;5016642;28;20025;-75
2024/01/29 06:36:57;;;;;;;9.00;3.72;;;;;;;;;;5011006;28;20712;-75
2024/01/29 06:39:24;;;;;;;8.20;4.18;;;;;;;;;;5014419;28;20948;-75
2024/01/29 06:41:50;;;;;;;4.68;3.05;;;;;;;;;;5002916;28;20033;-75
2024/01/29 06:44:16;;;;;;;8.52;3.33;;;;;;;;;;5010609;28;20045;-75
2024/01/29 06:46:42;;;;;;;7.70;3.33;;;;;;;;;;5014088;28;20040;-75
2024/01/29 06:49:08;;;;;;;10.35;3.25;;;;;;;;;;5009063;28;20029;-76
2024/01/29 06:51:34;;;;;;;7.68;4.13;;;;;;;;;;5010861;28;20037;-75
2024/01/29 06:54:03;;;;;;;5.25;3.95;;;;;;;;;;5015981;28;21637;-75
2024/01/29 06:56:29;;;;;;;4.60;3.53;;;;;;;;;;5013525;28;20419;-75
2024/01/29 06:58:56;;;;;;;9.45;4.28;;;;;;;;;;5009072;28;20175;-76
2024/01/29 07:01:22;;;;;;;4.00;3.28;;;;;;;;;;5021224;28;20040;-75
2024/01/29 07:03:48;;;;;;;6.82;5.22;;;;;;;;;;5019734;28;20033;-76
2024/01/29 07:06:14;;;;;;;5.53;3.50;;;;;;;;;;5013472;28;20026;-75
2024/01/29 07:08:39;;;;;;;8.45;3.78;;;;;;;;;;5014601;28;20029;-75
2024/01/29 07:11:05;;;;;;;11.73;4.75;;;;;;;;;;5013971;28;20052;-75
2024/01/29 07:13:32;;;;;;;7.05;4.72;;;;;;;;;;5005671;28;20168;-76
2024/01/29 07:15:59;;;;;;;4.97;3.47;;;;;;;;;;5008126;28;20662;-75
2024/01/29 07:18:25;;;;;;;9.90;4.95;;;;;;;;;;5009829;28;20049;-75
2024/01/29 07:20:51;;;;;;;8.70;4.25;;;;;;;;;;5016431;28;20125;-76
2024/01/29 07:23:17;;;;;;;8.68;4.47;;;;;;;;;;5006805;28;20088;-75
2024/01/29 07:25:43;;;;;;;8.13;4.35;;;;;;;;;;5019110;28;20048;-75
2024/01/29 07:28:09;;;;;;;10.63;5.20;;;;;;;;;;5010520;28;20037;-75
2024/01/29 07:30:35;;;;;;;10.68;6.53;;;;;;;;;;5018736;28;20535;-75
2024/01/29 07:33:02;;;;;;;9.90;5.88;;;;;;;;;;5016753;28;20045;-74
2024/01/29 07:35:28;;;;;;;9.30;5.00;;;;;;;;;;5019097;28;20048;-75
2024/01/29 07:37:54;;;;;;;11.90;5.78;;;;;;;;;;5015731;28;20065;-74
2024/01/29 07:40:20;;;;;;;10.05;6.03;;;;;;;;;;5009506;28;20021;-74
2024/01/29 07:42:47;;;;;;;8.93;5.55;;;;;;;;;;5015328;28;20557;-75
2024/01/29 07:45:13;;;;;;;15.50;5.30;;;;;;;;;;5014298;28;20489;-74
2024/01/29 07:47:39;;;;;;;11.10;6.25;;;;;;;;;;5014119;28;20033;-75
2024/01/29 07:50:05;;;;;;;8.93;5.10;;;;;;;;;;5021405;28;20033;-74
2024/01/29 07:52:31;;;;;;;13.35;5.70;;;;;;;;;;5026733;28;20033;-74
2024/01/29 07:54:57;;;;;;;13.05;6.47;;;;;;;;;;5038588;28;20117;-73
2024/01/29 07:57:24;;;;;;;6.68;4.00;;;;;;;;;;5032952;28;20038;-76
2024/01/29 07:59:50;;;;;;;8.73;5.47;;;;;;;;;;5018273;28;20745;-76
2024/01/29 08:02:16;;;;;;;11.95;6.88;;;;;;;;;;5015295;28;20037;-75
2024/01/29 08:04:42;;;;;;;15.38;6.53;;;;;;;;;;5021262;28;20029;-75
2024/01/29 08:07:08;;;;;;;20.60;8.45;;;;;;;;;;5019334;28;20100;-75
2024/01/29 08:09:34;;;;;;;15.75;7.20;;;;;;;;;;5025689;28;20646;-75
2024/01/29 08:12:00;;;;;;;12.20;6.00;;;;;;;;;;5019208;28;20056;-75
2024/01/29 08:14:26;;;;;;;10.98;7.22;;;;;;;;;;5020511;28;20036;-77
2024/01/29 08:16:52;;;;;;;16.67;9.52;;;;;;;;;;5009990;28;20057;-77
2024/01/29 08:19:18;;;;;;;12.70;5.22;;;;;;;;;;5013825;28;20032;-78
2024/01/29 08:21:44;;;;;;;14.32;7.72;;;;;;;;;;5020764;28;20092;-77
2024/01/29 08:24:10;;;;;;;15.10;7.40;;;;;;;;;;5017992;28;20048;-77
2024/01/29 08:26:36;;;;;;;12.48;7.90;;;;;;;;;;5020168;28;20060;-76
2024/01/29 08:29:02;;;;;;;11.73;7.35;;;;;;;;;;5019871;28;20053;-77
2024/01/29 08:31:30;;;;;;;12.90;5.82;;;;;;;;;;5013878;28;20034;-77
2024/01/29 08:33:56;;;;;;;16.48;7.43;;;;;;;;;;5022761;28;20488;-76
2024/01/29 08:36:22;;;;;;;16.63;7.82;;;;;;;;;;5019567;28;20045;-76
2024/01/29 08:38:48;;;;;;;11.43;7.03;;;;;;;;;;5018632;28;20048;-75
2024/01/29 08:41:15;;;;;;;11.07;6.72;;;;;;;;;;5016360;28;20048;-75
2024/01/29 08:43:41;;;;;;;15.45;7.55;;;;;;;;;;5022657;28;20037;-75
2024/01/29 08:46:07;;;;;;;24.95;7.70;;;;;;;;;;5019248;28;20033;-76
2024/01/29 08:48:33;;;;;;;24.80;11.82;;;;;;;;;;5023449;28;20037;-77
2024/01/29 08:50:59;;;;;;;22.70;12.63;;;;;;;;;;5013906;28;20038;-76
2024/01/29 08:53:25;;;;;;;31.08;13.73;;;;;;;;;;5016979;28;20492;-76
2024/01/29 08:55:51;;;;;;;33.13;16.08;;;;;;;;;;5008935;28;20025;-75
2024/01/29 08:58:17;;;;;;;37.15;19.75;;;;;;;;;;5018820;28;20030;-76
2024/01/29 09:00:43;;;;;;;30.70;17.55;;;;;;;;;;5021050;28;20025;-76
2024/01/29 09:03:09;;;;;;;42.22;19.02;;;;;;;;;;5011570;28;20113;-77
2024/01/29 09:05:36;;;;;;;41.40;19.13;;;;;;;;;;5019837;28;20038;-76
2024/01/29 09:08:01;;;;;;;26.52;13.55;;;;;;;;;;5011533;28;20033;-75
2024/01/29 09:10:27;;;;;;;16.45;6.95;;;;;;;;;;5020119;28;20041;-76
2024/01/29 09:12:53;;;;;;;8.65;3.78;;;;;;;;;;5012582;28;20032;-76
2024/01/29 09:15:19;;;;;;;7.18;3.70;;;;;;;;;;5018929;28;20034;-76
2024/01/29 09:17:45;;;;;;;5.85;3.30;;;;;;;;;;5016943;28;20026;-76
2024/01/29 09:20:12;;;;;;;5.40;3.00;;;;;;;;;;5014052;28;20078;-76
2024/01/29 09:22:38;;;;;;;5.30;3.55;;;;;;;;;;5011115;28;21852;-76
2024/01/29 09:25:06;;;;;;;6.57;3.95;;;;;;;;;;5019115;28;20041;-76
2024/01/29 09:27:32;;;;;;;8.75;4.03;;;;;;;;;;5017735;28;20689;-77
2024/01/29 09:29:58;;;;;;;6.93;4.10;;;;;;;;;;5025789;28;20029;-77
2024/01/29 09:32:24;;;;;;;10.95;4.97;;;;;;;;;;5017733;28;20021;-76
2024/01/29 09:34:50;;;;;;;11.65;5.50;;;;;;;;;;5019395;28;20029;-75
2024/01/29 09:37:19;;;;;;;7.53;4.15;;;;;;;;;;5019879;28;20033;-76
2024/01/29 09:39:45;;;;;;;9.93;4.13;;;;;;;;;;5023309;28;20041;-76
2024/01/29 09:42:16;;;;;;;9.52;4.25;;;;;;;;;;5011359;28;20038;-76
2024/01/29 09:44:42;;;;;;;8.95;5.10;;;;;;;;;;5016598;28;20033;-76
2024/01/29 09:47:09;;;;;;;10.23;4.28;;;;;;;;;;5008785;28;20449;-78
2024/01/29 09:49:36;;;;;;;8.10;4.65;;;;;;;;;;5004871;28;20072;-77
2024/01/29 09:52:06;;;;;;;7.28;4.72;;;;;;;;;;5018048;28;20099;-78
2024/01/29 09:54:33;;;;;;;8.75;4.65;;;;;;;;;;5017101;28;20484;-77
2024/01/29 09:57:00;;;;;;;12.95;4.18;;;;;;;;;;5016128;28;20026;-77
2024/01/29 09:59:26;;;;;;;10.50;5.22;;;;;;;;;;5023373;28;20033;-78
2024/01/29 10:01:52;;;;;;;13.50;5.20;;;;;;;;;;5018698;28;20104;-77
2024/01/29 10:04:21;;;;;;;7.95;4.95;;;;;;;;;;5028536;28;20568;-78
2024/01/29 10:06:47;;;;;;;7.63;4.35;;;;;;;;;;5016983;28;20038;-78
2024/01/29 10:09:14;;;;;;;11.98;6.25;;;;;;;;;;5015806;28;20030;-77
2024/01/29 10:11:42;;;;;;;10.68;6.18;;;;;;;;;;5024384;28;21576;-76
2024/01/29 10:14:08;;;;;;;10.93;4.75;;;;;;;;;;5023701;28;20491;-79
2024/01/29 10:16:34;;;;;;;12.00;5.63;;;;;;;;;;5018999;28;20451;-78
2024/01/29 10:19:00;;;;;;;10.85;5.60;;;;;;;;;;5021087;28;20082;-78
2024/01/29 10:21:26;;;;;;;13.55;5.38;;;;;;;;;;5014666;28;20538;-78
2024/01/29 10:23:56;;;;;;;11.35;5.57;;;;;;;;;;5020259;28;20026;-78
2024/01/29 10:26:22;;;;;;;9.65;5.05;;;;;;;;;;5019878;28;20104;-77
2024/01/29 10:28:59;;;;;;;10.27;4.40;;;;;;;;;;5024945;28;20040;-79
2024/01/29 10:31:25;;;;;;;8.25;5.03;;;;;;;;;;5017493;28;20109;-78
2024/01/29 10:33:51;;;;;;;8.05;4.35;;;;;;;;;;5017361;28;20743;-77
2024/01/29 10:36:17;;;;;;;13.35;6.25;;;;;;;;;;5019282;28;20460;-78
2024/01/29 10:38:45;;;;;;;10.02;4.22;;;;;;;;;;5020089;28;20065;-78
2024/01/29 10:41:12;;;;;;;9.00;4.47;;;;;;;;;;5024183;28;20051;-77
2024/01/29 10:43:39;;;;;;;6.10;4.15;;;;;;;;;;5014694;28;20022;-78
2024/01/29 10:46:08;;;;;;;11.95;5.05;;;;;;;;;;5025271;28;20056;-78
2024/01/29 10:48:35;;;;;;;7.35;4.20;;;;;;;;;;5013719;28;20480;-78
2024/01/29 10:51:02;;;;;;;8.02;4.75;;;4.90;99.90;;;;;;5010315;28;20030;-77
2024/01/29 10:53:29;;;;;;;14.77;4.97;;;;;;;;;;5019694;28;20499;-79
2024/01/29 10:55:56;;;;;;;9.48;4.60;;;;;;;;;;5013526;28;20956;-78
2024/01/29 10:58:23;;;;;;;8.70;4.70;;;;;;;;;;5012806;28;20130;-77
2024/01/29 11:00:49;;;;;;;7.43;4.22;;;;;;;;;;5012810;28;21387;-78
2024/01/29 11:03:17;;;;;;;8.52;4.35;;;;;;;;;;5013842;28;20052;-78
2024/01/29 11:05:46;;;;;;;11.77;4.78;;;;;;;;;;5021352;28;20091;-79
2024/01/29 11:08:14;;;;;;;9.18;4.25;;;;;;;;;;5012865;28;20310;-79
2024/01/29 11:10:40;;;;;;;9.52;4.63;;;;;;;;;;5018631;28;20029;-79
2024/01/29 11:13:09;;;;;;;7.88;4.05;;;;;;;;;;5017246;28;21443;-79
2024/01/29 11:15:35;;;;;;;13.25;4.55;;;;;;;;;;5021485;28;20033;-79
2024/01/29 11:18:01;;;;;;;7.35;5.05;;;;;;;;;;5009011;28;20439;-79
2024/01/29 11:20:27;;;;;;;17.58;5.55;;;;;;;;;;5003796;28;20061;-79
2024/01/29 11:23:00;;;;;;;8.75;4.25;;;;;;;;;;5008048;28;20049;-79
2024/01/29 11:25:29;;;;;;;11.23;4.97;;;;;;;;;;5014729;28;20030;-77
2024/01/29 11:27:58;;;;;;;9.88;5.68;;;;;;;;;;5025250;28;20072;-76
2024/01/29 11:30:25;;;;;;;9.35;4.93;;;;;;;;;;5033766;28;20401;-78
2024/01/29 11:32:52;;;;;;;9.80;5.40;;;;;;;;;;5007349;28;20500;-77
2024/01/29 11:35:19;;;;;;;8.82;4.60;;;;;;;;;;5011385;28;20531;-77
2024/01/29 11:37:47;;;;;;;9.50;6.07;;;;;;;;;;5014356;28;20404;-77
2024/01/29 11:40:32;;;;;;;10.85;4.97;;;;;;;;;;5020295;28;20458;-77
2024/01/29 11:42:59;;;;;;;11.50;6.18;;;;;;;;;;5018087;28;20029;-77
2024/01/29 11:45:27;;;;;;;16.20;6.00;;;;;;;;;;5023459;28;20052;-77
2024/01/29 11:47:53;;;;;;;10.57;5.30;;;;;;;;;;5020970;28;20030;-76
2024/01/29 11:50:19;;;;;;;12.82;5.57;;;;;;;;;;5016560;28;20025;-77
2024/01/29 11:52:46;;;;;;;8.02;4.25;;;;;;;;;;5013720;28;20040;-77
2024/01/29 11:55:12;;;;;;;10.32;4.93;;;;;;;;;;5027683;28;20040;-76
2024/01/29 11:57:38;;;;;;;7.22;4.18;;;;;;;;;;5038564;28;20101;-78
2024/01/29 12:00:08;;;;;;;6.63;3.67;;;;;;;;;;5030298;28;20033;-79
2024/01/29 12:02:33;;;;;;;7.63;3.63;;;;;;;;;;5020196;28;20052;-79
2024/01/29 12:04:59;;;;;;;8.85;4.38;;;;;;;;;;5017908;28;20057;-78
2024/01/29 12:07:25;;;;;;;8.18;4.13;;;;;;;;;;5014636;28;20040;-77
2024/01/29 12:09:51;;;;;;;10.38;4.80;;;;;;;;;;5014533;28;20129;-77
2024/01/29 12:12:17;;;;;;;8.13;4.32;;;;;;;;;;5020071;28;20502;-77
2024/01/29 12:14:43;;;;;;;9.98;5.35;;;;;;;;;;5024940;28;20034;-78
2024/01/29 12:17:12;;;;;;;9.45;3.97;;;;;;;;;;5021188;28;20369;-79
2024/01/29 12:19:38;;;;;;;8.55;3.70;;;;;;;;;;5021681;28;20045;-78
2024/01/29 12:22:04;;;;;;;9.98;3.47;;;;;;;;;;5014607;28;20080;-78
2024/01/29 12:24:30;;;;;;;5.18;3.13;;;;;;;;;;5017110;28;20680;-79
2024/01/29 12:26:56;;;;;;;7.97;3.85;;;;;;;;;;5028491;28;20026;-77
2024/01/29 12:29:22;;;;;;;8.95;3.53;;;;;;;;;;5027071;28;20060;-78
2024/01/29 12:31:49;;;;;;;7.55;3.50;;;;;;;;;;5014674;28;20131;-78
2024/01/29 12:34:22;;;;;;;9.85;3.97;;;;;;;;;;5015609;28;20567;-81
2024/01/29 12:36:53;;;;;;;5.88;3.63;;;;;;;;;;5025153;28;20492;-79
2024/01/29 12:39:19;;;;;;;7.38;4.07;;;;;;;;;;5020874;28;20065;-78
2024/01/29 12:41:45;;;;;;;7.10;3.17;;;;;;;;;;5022363;28;20114;-79
2024/01/29 12:44:11;;;;;;;7.85;3.95;;;;;;;;;;5027665;28;20029;-80
2024/01/29 12:46:37;;;;;;;11.27;5.82;;;;;;;;;;5026564;28;20034;-80
2024/01/29 12:49:06;;;;;;;13.68;5.15;;;;;;;;;;5022679;28;20057;-80
2024/01/29 12:51:32;;;;;;;7.72;4.15;;;;;;;;;;5024357;28;20029;-80
2024/01/29 12:53:58;;;;;;;7.78;3.40;;;;;;;;;;5025193;28;20040;-80
2024/01/29 12:56:29;;;;;;;8.43;4.18;;;;;;;;;;5015037;28;20022;-80
2024/01/29 12:58:56;;;;;;;7.68;3.33;;;;;;;;;;5023306;28;20025;-77
2024/01/29 13:01:22;;;;;;;7.20;2.80;;;;;;;;;;5018387;28;20025;-79
2024/01/29 13:03:48;;;;;;;8.95;2.85;;;;;;;;;;5016000;28;20033;-79
2024/01/29 13:06:14;;;;;;;7.30;2.80;;;;;;;;;;5003569;28;20079;-79
2024/01/29 13:08:40;;;;;;;5.38;2.00;;;;;;;;;;5023112;28;20034;-80
2024/01/29 13:11:06;;;;;;;5.25;1.83;;;;;;;;;;5025360;28;20112;-79
2024/01/29 13:13:32;;;;;;;9.18;2.45;;;;;;;;;;5017073;28;20084;-80
2024/01/29 13:15:58;;;;;;;3.30;1.85;;;;;;;;;;5025643;28;20030;-80
2024/01/29 13:18:25;;;;;;;7.22;1.65;;;;;;;;;;5013560;28;20071;-79
2024/01/29 13:20:51;;;;;;;8.13;1.98;;;;;;;;;;5026806;28;20035;-79
2024/01/29 13:23:17;;;;;;;4.47;1.98;;;;;;;;;;5017409;28;20400;-78
2024/01/29 13:25:44;;;;;;;3.45;1.77;;;;;;;;;;5022670;28;20547;-79
2024/01/29 13:28:10;;;;;;;3.47;2.13;;;;;;;;;;5018752;28;20053;-79
2024/01/29 13:30:37;;;;;;;3.08;1.67;;;;;;;;;;5019319;28;20089;-79
2024/01/29 13:33:04;;;;;;;2.65;1.50;;;;;;;;;;5019265;28;20030;-79
2024/01/29 13:35:30;;;;;;;4.53;1.98;;;;;;;;;;5017933;28;20057;-78
2024/01/29 13:37:56;;;;;;;3.40;1.85;;;;;;;;;;5006599;28;20018;-80
2024/01/29 13:40:22;;;;;;;4.15;1.75;;;;;;;;;;5018268;28;20034;-79
2024/01/29 13:42:48;;;;;;;4.75;1.48;;;;;;;;;;5014136;28;20124;-78
2024/01/29 13:45:14;;;;;;;2.72;1.40;;;;;;;;;;5021975;28;20749;-81
2024/01/29 13:47:40;;;;;;;4.45;1.20;;;;;;;;;;5006715;28;20076;-79
2024/01/29 13:50:06;;;;;;;2.17;1.58;;;;;;;;;;5027503;28;20079;-80
2024/01/29 13:52:33;;;;;;;3.65;1.65;;;;;;;;;;5022459;28;20095;-77
2024/01/29 13:54:59;;;;;;;5.45;1.65;;;;;;;;;;5024684;28;20021;-80
2024/01/29 13:57:24;;;;;;;3.33;1.60;;;;;;;;;;5020335;28;20361;-79
2024/01/29 13:59:51;;;;;;;3.72;1.85;;;;;;;;;;5022785;28;20025;-79
2024/01/29 14:02:17;;;;;;;5.25;1.98;;;;;;;;;;5014109;28;20124;-79
2024/01/29 14:04:43;;;;;;;6.75;1.58;;;;;;;;;;5025450;28;20128;-78
2024/01/29 14:07:10;;;;;;;3.50;1.65;;;;;;;;;;5015875;28;20404;-78
2024/01/29 14:09:36;;;;;;;5.25;1.85;;;;;;;;;;5023678;28;20032;-80
2024/01/29 14:12:02;;;;;;;2.72;1.50;;;;;;;;;;5014539;28;20025;-79
2024/01/29 14:14:29;;;;;;;2.97;1.42;;;;;;;;;;5023230;28;20112;-79
2024/01/29 14:16:55;;;;;;;1.95;1.63;;;;;;;;;;5019116;28;20041;-78
2024/01/29 14:19:21;;;;;;;4.32;1.83;;;;;;;;;;5020964;28;20040;-78
2024/01/29 14:21:47;;;;;;;3.97;1.88;;;;;;;;;;5012356;28;20037;-78
2024/01/29 14:24:13;;;;;;;3.17;1.65;;;;;;;;;;5016948;28;20067;-78
2024/01/29 14:26:41;;;;;;;3.65;1.92;;;;;;;;;;5021363;28;20036;-79
2024/01/29 14:29:07;;;;;;;7.20;1.80;;;;;;;;;;5027498;28;20025;-80
2024/01/29 14:31:33;;;;;;;6.53;2.10;;;;;;;;;;5026511;28;20109;-79
2024/01/29 14:33:59;;;;;;;3.42;2.17;;;;;;;;;;5019344;28;20029;-78